Time;durP1;ratioP1;P1;durP2;ratioP2;P2;SDS_P1;SDS_P2;PMS_P1;PMS_P2;Temp;Humidity;BMP_temperature;BMP_pressure;BME280_temperature;BME280_humidity;BME280_pressure;Samples;Min_cycle;Max_cycle;Signal;HPM_P1;HPM_P2
2022/05/22 00:02:25;;;;;;;10.48;4.15;;;9.60;99.90;;;;;;4946879;28;20108;-79
2022/05/22 00:04:50;;;;;;;10.65;4.28;;;9.60;99.90;;;;;;4949731;28;20073;-79
2022/05/22 00:07:16;;;;;;;7.85;4.00;;;9.50;99.90;;;;;;4961075;28;20062;-79
2022/05/22 00:09:42;;;;;;;11.38;4.00;;;9.50;99.90;;;;;;4943270;28;20444;-79
2022/05/22 00:12:09;;;;;;;12.57;4.10;;;9.50;99.90;;;;;;4959572;28;20093;-79
2022/05/22 00:14:36;;;;;;;7.78;4.45;;;9.40;99.90;;;;;;4968098;28;20038;-79
2022/05/22 00:17:03;;;;;;;9.48;4.60;;;9.40;99.90;;;;;;4965169;28;20054;-78
2022/05/22 00:19:33;;;;;;;10.02;4.20;;;9.40;99.90;;;;;;4966188;28;20070;-79
2022/05/22 00:21:59;;;;;;;10.98;4.65;;;9.50;99.90;;;;;;4957366;28;20046;-79
2022/05/22 00:24:26;;;;;;;8.68;4.40;;;9.40;99.90;;;;;;4960298;28;20515;-79
2022/05/22 00:26:52;;;;;;;10.25;4.75;;;9.40;99.90;;;;;;4970263;28;20050;-79
2022/05/22 00:29:19;;;;;;;12.85;5.50;;;9.40;99.90;;;;;;4967870;28;20038;-78
2022/05/22 00:31:45;;;;;;;12.10;4.72;;;9.30;99.90;;;;;;4963183;28;20049;-79
2022/05/22 00:34:12;;;;;;;17.83;5.80;;;9.30;99.90;;;;;;4944425;28;20039;-78
2022/05/22 00:36:38;;;;;;;9.05;4.65;;;9.30;99.90;;;;;;4950107;28;20030;-78
2022/05/22 00:39:04;;;;;;;13.25;4.95;;;9.30;99.90;;;;;;4960693;28;20034;-78
2022/05/22 00:41:32;;;;;;;10.50;5.22;;;9.30;99.90;;;;;;4962154;28;20046;-78
2022/05/22 00:43:59;;;;;;;10.20;4.88;;;9.30;99.90;;;;;;4935574;28;20471;-78
2022/05/22 00:46:25;;;;;;;11.45;4.50;;;9.30;99.90;;;;;;4967526;28;20065;-79
2022/05/22 00:48:57;;;;;;;11.85;5.65;;;9.30;99.90;;;;;;4949385;28;20484;-79
2022/05/22 00:51:30;;;;;;;11.43;4.72;;;9.20;99.90;;;;;;4961091;28;20396;-79
2022/05/22 00:54:00;;;;;;;10.77;5.43;;;9.20;99.90;;;;;;4962625;28;20541;-79
2022/05/22 00:56:34;;;;;;;11.52;5.88;;;9.20;99.90;;;;;;4966515;28;20030;-79
2022/05/22 00:59:04;;;;;;;8.77;5.10;;;9.20;99.90;;;;;;4967092;28;20050;-79
2022/05/22 01:01:30;;;;;;;10.88;5.40;;;9.10;99.90;;;;;;4958961;28;20035;-78
2022/05/22 01:03:57;;;;;;;9.38;5.40;;;9.10;99.90;;;;;;4950610;28;20412;-79
2022/05/22 01:06:25;;;;;;;14.93;5.05;;;9.10;99.90;;;;;;4952231;28;20038;-78
2022/05/22 01:08:53;;;;;;;10.23;5.50;;;9.10;99.90;;;;;;4964619;28;20046;-79
2022/05/22 01:11:33;;;;;;;10.02;4.60;;;9.10;99.90;;;;;;4946373;28;20372;-79
2022/05/22 01:14:06;;;;;;;7.95;4.85;;;9.10;99.90;;;;;;4959751;28;20070;-78
2022/05/22 01:16:33;;;;;;;10.23;4.93;;;9.10;99.90;;;;;;4948758;28;20439;-79
2022/05/22 01:18:58;;;;;;;8.93;5.15;;;9.10;99.90;;;;;;4959069;28;20050;-78
2022/05/22 01:21:31;;;;;;;11.73;4.53;;;9.00;99.90;;;;;;4948506;28;20479;-78
2022/05/22 01:23:58;;;;;;;10.65;5.22;;;8.90;99.90;;;;;;4963775;28;20088;-78
2022/05/22 01:26:26;;;;;;;10.65;5.47;;;9.00;99.90;;;;;;4968760;28;20180;-79
2022/05/22 01:28:52;;;;;;;12.38;5.97;;;8.90;99.90;;;;;;4957708;28;20042;-78
2022/05/22 01:31:18;;;;;;;10.15;5.60;;;8.90;99.90;;;;;;4934127;28;20049;-79
2022/05/22 01:33:44;;;;;;;12.18;5.72;;;8.90;99.90;;;;;;4943096;28;20365;-79
2022/05/22 01:36:10;;;;;;;9.85;6.03;;;8.90;99.90;;;;;;4950064;28;20037;-78
2022/05/22 01:38:37;;;;;;;10.88;5.95;;;8.90;99.90;;;;;;4950716;28;20085;-78
2022/05/22 01:41:04;;;;;;;10.95;6.20;;;8.90;99.90;;;;;;4949985;28;20069;-78
2022/05/22 01:43:31;;;;;;;12.48;6.25;;;8.90;99.90;;;;;;4962970;28;20053;-78
2022/05/22 01:45:56;;;;;;;13.85;6.82;;;8.90;99.90;;;;;;4958834;28;20396;-78
2022/05/22 01:48:23;;;;;;;11.65;6.43;;;8.90;99.90;;;;;;4966253;28;20042;-78
2022/05/22 01:50:50;;;;;;;14.55;6.60;;;8.90;99.90;;;;;;4960655;28;20049;-78
2022/05/22 01:53:17;;;;;;;16.92;7.57;;;8.90;99.90;;;;;;4947657;28;20050;-78
2022/05/22 01:55:43;;;;;;;12.57;7.43;;;8.90;99.90;;;;;;4952659;28;20446;-78
2022/05/22 01:58:09;;;;;;;13.82;6.88;;;8.90;99.90;;;;;;4959885;28;20042;-79
2022/05/22 02:00:36;;;;;;;11.15;7.22;;;8.80;99.90;;;;;;4966039;28;20037;-78
2022/05/22 02:03:01;;;;;;;19.27;7.38;;;8.80;99.90;;;;;;4958231;28;20077;-79
2022/05/22 02:05:27;;;;;;;15.73;8.20;;;8.80;99.90;;;;;;4945907;28;20070;-79
2022/05/22 02:10:38;;;;;;;18.85;8.00;;;8.90;99.90;;;;;;4954704;28;20423;-78
2022/05/22 02:13:05;;;;;;;16.35;7.10;;;8.90;99.90;;;;;;4951586;28;20053;-78
2022/05/22 02:15:31;;;;;;;12.77;7.18;;;8.90;99.90;;;;;;4962159;28;20441;-79
2022/05/22 02:17:57;;;;;;;12.85;7.20;;;8.90;99.90;;;;;;4964130;28;20138;-78
2022/05/22 02:20:23;;;;;;;15.35;8.13;;;8.90;99.90;;;;;;4957094;28;20131;-78
2022/05/22 02:22:54;;;;;;;16.77;7.88;;;8.90;99.90;;;;;;4962804;28;20034;-79
2022/05/22 02:25:26;;;;;;;16.13;7.90;;;9.20;99.90;;;;;;4955347;28;20085;-79
2022/05/22 02:27:52;;;;;;;14.97;7.30;;;8.80;99.90;;;;;;4965641;28;20038;-79
2022/05/22 02:30:25;;;;;;;17.80;8.30;;;8.80;99.90;;;;;;4938940;28;20727;-78
2022/05/22 02:32:51;;;;;;;17.70;8.57;;;8.80;99.90;;;;;;4957887;28;20054;-79
2022/05/22 02:35:17;;;;;;;28.75;10.40;;;8.80;99.90;;;;;;4961113;28;20163;-78
2022/05/22 02:37:49;;;;;;;16.60;7.65;;;8.70;99.90;;;;;;4963816;28;20046;-79
2022/05/22 02:40:17;;;;;;;18.98;7.40;;;8.80;99.90;;;;;;4954934;28;20108;-79
2022/05/22 02:42:46;;;;;;;18.55;8.30;;;8.70;99.90;;;;;;4959178;28;20043;-79
2022/05/22 02:45:13;;;;;;;15.07;7.72;;;8.70;99.90;;;;;;4960845;28;20314;-80
2022/05/22 02:47:39;;;;;;;10.82;7.53;;;8.70;99.90;;;;;;4953534;28;20042;-79
2022/05/22 02:50:07;;;;;;;17.00;7.80;;;8.70;99.90;;;;;;4951453;28;20049;-79
2022/05/22 02:52:33;;;;;;;19.40;8.90;;;8.70;99.90;;;;;;4942270;28;20043;-79
2022/05/22 02:54:59;;;;;;;13.50;8.00;;;8.70;99.90;;;;;;4958464;28;20054;-79
2022/05/22 02:57:25;;;;;;;14.70;7.95;;;8.70;99.90;;;;;;4953292;28;20073;-79
2022/05/22 02:59:52;;;;;;;17.70;8.85;;;8.60;99.90;;;;;;4952304;28;20092;-78
2022/05/22 03:02:19;;;;;;;16.55;8.57;;;8.70;99.90;;;;;;4959904;28;20047;-79
2022/05/22 03:04:45;;;;;;;17.50;8.57;;;8.90;99.90;;;;;;4960119;28;20042;-79
2022/05/22 03:07:12;;;;;;;13.55;7.75;;;8.60;99.90;;;;;;4951088;28;20077;-79
2022/05/22 03:09:40;;;;;;;13.40;8.75;;;8.90;99.90;;;;;;4965222;28;20055;-79
2022/05/22 03:12:18;;;;;;;13.98;8.10;;;8.60;99.90;;;;;;4962913;28;20120;-79
2022/05/22 03:14:46;;;;;;;13.88;8.32;;;8.50;99.90;;;;;;4951418;28;20047;-79
2022/05/22 03:17:12;;;;;;;10.77;7.45;;;8.50;99.90;;;;;;4960853;28;20090;-79
2022/05/22 03:19:38;;;;;;;13.75;8.70;;;8.50;99.90;;;;;;4969263;28;20081;-79
2022/05/22 03:22:05;;;;;;;13.40;8.07;;;8.50;99.90;;;;;;4935682;28;20190;-79
2022/05/22 03:24:30;;;;;;;29.13;10.27;;;8.50;99.90;;;;;;4957148;28;20057;-78
2022/05/22 03:26:56;;;;;;;16.83;8.98;;;8.40;99.90;;;;;;4951585;28;20484;-79
2022/05/22 03:29:22;;;;;;;14.48;8.70;;;8.40;99.90;;;;;;4959806;28;20038;-79
2022/05/22 03:31:47;;;;;;;11.20;8.73;;;8.40;99.90;;;;;;4933721;28;20039;-79
2022/05/22 03:34:13;;;;;;;15.25;8.43;;;8.30;99.90;;;;;;4957650;28;20182;-79
2022/05/22 03:36:40;;;;;;;12.52;7.75;;;8.40;99.90;;;;;;4950062;28;20888;-79
2022/05/22 03:39:06;;;;;;;12.77;8.77;;;8.40;99.90;;;;;;4950885;28;20097;-79
2022/05/22 03:41:34;;;;;;;12.10;8.13;;;8.40;99.90;;;;;;4965674;28;20044;-79
2022/05/22 03:44:00;;;;;;;14.57;8.25;;;8.30;99.90;;;;;;4958354;28;20053;-79
2022/05/22 03:46:26;;;;;;;13.13;8.40;;;8.30;99.90;;;;;;4936226;28;20042;-79
2022/05/22 03:48:51;;;;;;;11.95;7.97;;;8.30;99.90;;;;;;4950734;28;20467;-79
2022/05/22 03:51:17;;;;;;;15.60;8.10;;;8.30;99.90;;;;;;4951550;28;20030;-79
2022/05/22 03:53:43;;;;;;;9.68;6.97;;;8.30;99.90;;;;;;4937131;28;20054;-78
2022/05/22 03:56:13;;;;;;;13.70;6.68;;;8.30;99.90;;;;;;4945706;28;20058;-79
2022/05/22 03:58:40;;;;;;;9.02;6.30;;;8.20;99.90;;;;;;4951959;28;20069;-79
2022/05/22 04:01:07;;;;;;;12.32;6.53;;;8.20;99.90;;;;;;4965088;28;20034;-79
2022/05/22 04:03:37;;;;;;;12.45;7.03;;;8.20;99.90;;;;;;4958893;28;20562;-79
2022/05/22 04:06:04;;;;;;;13.60;7.32;;;8.20;99.90;;;;;;4953535;28;20042;-79
2022/05/22 04:08:30;;;;;;;13.27;7.20;;;8.20;99.90;;;;;;4950545;28;20476;-78
2022/05/22 04:10:56;;;;;;;12.20;8.02;;;8.20;99.90;;;;;;4949900;28;20061;-79
2022/05/22 04:13:24;;;;;;;14.25;8.05;;;8.20;99.90;;;;;;4964411;28;20069;-79
2022/05/22 04:15:50;;;;;;;13.15;7.07;;;8.30;99.90;;;;;;4949792;28;20030;-78
2022/05/22 04:18:17;;;;;;;11.60;7.15;;;8.10;99.90;;;;;;4958550;28;20055;-79
2022/05/22 04:20:43;;;;;;;11.27;7.70;;;8.20;99.90;;;;;;4955595;28;20594;-80
2022/05/22 04:25:58;;;;;;;13.30;8.48;;;8.10;99.90;;;;;;4959480;28;20053;-79
2022/05/22 04:28:26;;;;;;;26.48;10.25;;;8.20;99.90;;;;;;4960873;28;20042;-79
2022/05/22 04:30:52;;;;;;;15.80;8.88;;;8.30;99.90;;;;;;4955676;28;20516;-78
2022/05/22 04:33:18;;;;;;;18.52;8.98;;;8.30;99.90;;;;;;4962307;28;20038;-78
2022/05/22 04:35:44;;;;;;;18.25;9.00;;;8.40;99.90;;;;;;4952567;28;20059;-79
2022/05/22 04:38:10;;;;;;;15.93;9.52;;;8.40;99.90;;;;;;4962492;28;20031;-78
2022/05/22 04:40:37;;;;;;;18.63;8.82;;;8.50;99.90;;;;;;4965238;28;20038;-79
2022/05/22 04:43:04;;;;;;;16.15;9.35;;;8.50;99.90;;;;;;4947659;28;20058;-78
2022/05/22 04:45:30;;;;;;;22.10;9.63;;;8.50;99.90;;;;;;4967980;28;20140;-79
2022/05/22 04:47:56;;;;;;;15.43;9.45;;;8.60;99.90;;;;;;4955449;28;20042;-79
2022/05/22 04:50:23;;;;;;;19.70;10.00;;;8.70;99.90;;;;;;4967296;28;20085;-78
2022/05/22 04:52:48;;;;;;;15.90;8.90;;;8.80;99.90;;;;;;4948922;28;20054;-79
2022/05/22 04:55:14;;;;;;;16.40;8.73;;;8.80;99.90;;;;;;4934355;28;20042;-79
2022/05/22 04:57:40;;;;;;;15.82;7.38;;;8.80;99.90;;;;;;4961616;28;20042;-79
2022/05/22 05:00:09;;;;;;;16.98;8.43;;;8.80;99.90;;;;;;4961982;28;20470;-79
2022/05/22 05:02:37;;;;;;;18.77;8.73;;;8.90;99.90;;;;;;4951444;28;20053;-79
2022/05/22 05:05:05;;;;;;;13.55;8.55;;;8.90;99.90;;;;;;4967792;28;20113;-79
2022/05/22 05:07:32;;;;;;;16.00;9.10;;;9.00;99.90;;;;;;4959271;28;20637;-78
2022/05/22 05:09:58;;;;;;;16.95;9.20;;;9.00;99.90;;;;;;4954735;28;20554;-80
2022/05/22 05:12:24;;;;;;;18.92;9.05;;;9.10;99.90;;;;;;4956638;28;20174;-79
2022/05/22 05:14:49;;;;;;;18.13;9.68;;;9.10;99.90;;;;;;4943746;28;20276;-79
2022/05/22 05:17:17;;;;;;;17.70;9.25;;;9.20;99.90;;;;;;4949298;28;20059;-79
2022/05/22 05:19:44;;;;;;;24.52;9.68;;;9.30;99.90;;;;;;4959518;28;20039;-79
2022/05/22 05:22:10;;;;;;;17.40;9.48;;;9.30;99.90;;;;;;4954647;28;20556;-79
2022/05/22 05:24:37;;;;;;;14.88;9.77;;;9.30;99.90;;;;;;4957221;28;20403;-79
2022/05/22 05:27:03;;;;;;;23.63;9.65;;;9.50;99.90;;;;;;4951141;28;20177;-79
2022/05/22 05:29:28;;;;;;;26.48;10.32;;;9.50;99.90;;;;;;4973730;28;20137;-79
2022/05/22 05:31:54;;;;;;;22.48;10.20;;;9.60;99.90;;;;;;4956749;28;20046;-79
2022/05/22 05:34:20;;;;;;;23.35;9.90;;;9.60;99.90;;;;;;4949148;28;20031;-79
2022/05/22 05:36:46;;;;;;;19.75;10.07;;;9.80;99.90;;;;;;4968199;28;20160;-79
2022/05/22 05:39:11;;;;;;;22.45;9.90;;;9.90;99.90;;;;;;4954340;28;20042;-79
2022/05/22 05:41:37;;;;;;;24.13;10.38;;;10.00;99.90;;;;;;4947498;28;20058;-79
2022/05/22 05:44:05;;;;;;;23.63;9.18;;;10.20;99.90;;;;;;4959812;28;20112;-79
2022/05/22 05:46:36;;;;;;;19.92;10.10;;;10.20;99.90;;;;;;4951350;28;20038;-79
2022/05/22 05:49:02;;;;;;;24.33;10.30;;;10.20;99.90;;;;;;4953055;28;20045;-78
2022/05/22 05:51:28;;;;;;;18.00;9.13;;;10.40;99.90;;;;;;4938743;28;20035;-79
2022/05/22 05:53:54;;;;;;;19.15;9.43;;;10.50;99.90;;;;;;4960980;28;20438;-79
2022/05/22 05:56:20;;;;;;;21.48;9.45;;;10.60;99.90;;;;;;4950539;28;20070;-78
2022/05/22 05:58:46;;;;;;;19.00;8.95;;;10.70;99.90;;;;;;4942643;28;20059;-78
2022/05/22 06:01:16;;;;;;;16.05;8.57;;;10.70;99.90;;;;;;4959565;28;20467;-79
2022/05/22 06:03:42;;;;;;;22.67;8.85;;;10.80;99.90;;;;;;4966025;28;20521;-79
2022/05/22 06:06:10;;;;;;;15.90;8.52;;;10.80;99.90;;;;;;4955407;28;20134;-79
2022/05/22 06:08:36;;;;;;;21.25;9.40;;;11.00;99.90;;;;;;4967751;28;20070;-78
2022/05/22 06:11:02;;;;;;;20.95;8.77;;;11.10;99.90;;;;;;4954320;28;20084;-79
2022/05/22 06:13:27;;;;;;;14.88;7.93;;;11.10;99.90;;;;;;4959831;28;20408;-79
2022/05/22 06:15:53;;;;;;;20.10;9.75;;;11.20;99.90;;;;;;4971061;28;20298;-79
2022/05/22 06:18:20;;;;;;;20.50;8.90;;;11.30;99.90;;;;;;4953152;28;20046;-79
2022/05/22 06:20:46;;;;;;;20.65;9.05;;;11.40;99.90;;;;;;4958859;28;20079;-79
2022/05/22 06:23:13;;;;;;;19.08;7.78;;;11.50;99.90;;;;;;4968202;28;20117;-79
2022/05/22 06:25:44;;;;;;;19.30;8.27;;;11.70;99.90;;;;;;4949599;28;20431;-79
2022/05/22 06:28:11;;;;;;;16.48;6.88;;;11.70;99.90;;;;;;4937153;28;20038;-79
2022/05/22 06:30:37;;;;;;;18.10;8.73;;;11.80;99.90;;;;;;4958383;28;20047;-79
2022/05/22 06:33:15;;;;;;;13.93;6.82;;;11.90;99.90;;;;;;4954005;28;20462;-79
2022/05/22 06:35:42;;;;;;;20.25;7.45;;;12.00;99.90;;;;;;4951084;28;20110;-79
2022/05/22 06:40:56;;;;;;;19.80;7.07;;;12.20;99.90;;;;;;4960480;28;20042;-79
2022/05/22 06:43:22;;;;;;;17.85;6.85;;;12.30;99.90;;;;;;4964370;28;20131;-79
2022/05/22 06:45:51;;;;;;;18.05;7.78;;;12.40;99.90;;;;;;4959597;28;20440;-79
2022/05/22 06:48:19;;;;;;;15.13;6.35;;;12.50;99.90;;;;;;4949062;28;20779;-79
2022/05/22 06:50:45;;;;;;;16.98;5.65;;;12.60;99.90;;;;;;4958473;28;20046;-79
2022/05/22 06:53:11;;;;;;;18.00;6.82;;;12.70;99.90;;;;;;4950697;28;20546;-79
2022/05/22 06:55:37;;;;;;;12.45;6.05;;;12.90;99.90;;;;;;4969194;28;20105;-80
2022/05/22 06:58:03;;;;;;;14.85;5.22;;;13.00;99.90;;;;;;4974582;28;20053;-80
2022/05/22 07:00:30;;;;;;;13.90;4.20;;;13.10;99.90;;;;;;4963999;28;20038;-80
2022/05/22 07:02:55;;;;;;;7.85;3.65;;;13.20;99.90;;;;;;4975659;28;20439;-80
2022/05/22 07:05:21;;;;;;;15.90;5.88;;;13.30;99.90;;;;;;4957551;28;20113;-80
2022/05/22 07:07:47;;;;;;;15.90;5.43;;;13.30;99.90;;;;;;4956084;28;20035;-81
2022/05/22 07:10:14;;;;;;;15.18;5.20;;;13.50;99.90;;;;;;4955503;28;20038;-81
2022/05/22 07:12:40;;;;;;;24.25;6.22;;;13.60;99.90;;;;;;4955038;28;20050;-80
2022/05/22 07:15:07;;;;;;;13.40;5.22;;;13.80;99.90;;;;;;4957014;28;20041;-80
2022/05/22 07:17:34;;;;;;;9.13;3.63;;;13.80;99.90;;;;;;4959583;28;20104;-80
2022/05/22 07:20:00;;;;;;;11.63;4.00;;;13.90;99.90;;;;;;4958759;28;20655;-80
2022/05/22 07:22:26;;;;;;;10.43;4.55;;;14.10;99.90;;;;;;4957933;28;20038;-80
2022/05/22 07:24:52;;;;;;;12.27;4.63;;;14.20;99.90;;;;;;4973848;28;20046;-80
2022/05/22 07:27:18;;;;;;;10.13;3.85;;;14.30;99.90;;;;;;4972694;28;20057;-80
2022/05/22 07:29:44;;;;;;;12.25;4.70;;;14.30;99.90;;;;;;4971923;28;20046;-80
2022/05/22 07:32:10;;;;;;;13.07;4.72;;;14.40;99.90;;;;;;4956866;28;20072;-79
2022/05/22 07:34:36;;;;;;;13.30;4.25;;;14.60;99.90;;;;;;4950068;28;20034;-81
2022/05/22 07:37:06;;;;;;;9.25;4.05;;;14.80;99.90;;;;;;4957135;28;20038;-80
2022/05/22 07:39:32;;;;;;;10.68;3.97;;;14.80;99.90;;;;;;4967455;28;20403;-80
2022/05/22 07:41:58;;;;;;;11.48;4.25;;;15.00;99.90;;;;;;4947657;28;20499;-80
2022/05/22 07:44:24;;;;;;;12.75;4.20;;;15.10;99.90;;;;;;4957497;28;20124;-80
2022/05/22 07:46:50;;;;;;;8.93;4.00;;;15.20;99.90;;;;;;4971272;28;20101;-80
2022/05/22 07:52:09;;;;;;;10.98;3.95;;;15.40;99.90;;;;;;4982425;28;20742;-79
2022/05/22 07:54:37;;;;;;;10.40;3.17;;;15.50;99.90;;;;;;4966075;28;20066;-80
2022/05/22 07:57:04;;;;;;;8.27;3.63;;;15.60;99.90;;;;;;4951146;28;20042;-79
2022/05/22 07:59:34;;;;;;;12.98;3.95;;;15.70;99.90;;;;;;4964230;28;20038;-79
2022/05/22 08:02:00;;;;;;;10.93;3.47;;;15.70;99.90;;;;;;4959059;28;20510;-78
2022/05/22 08:04:26;;;;;;;8.07;3.10;;;15.80;99.90;;;;;;4951848;28;20045;-78
2022/05/22 08:06:52;;;;;;;8.52;3.35;;;15.80;99.90;;;;;;4969540;28;20030;-78
2022/05/22 08:09:18;;;;;;;7.68;3.25;;;15.90;99.90;;;;;;4936237;28;20072;-78
2022/05/22 08:11:43;;;;;;;13.13;4.32;;;16.10;99.90;;;;;;4953425;28;20558;-78
2022/05/22 08:14:09;;;;;;;14.20;4.00;;;16.20;99.90;;;;;;4962947;28;20082;-78
2022/05/22 08:16:35;;;;;;;13.35;4.72;;;16.20;99.90;;;;;;4963946;28;20053;-78
2022/05/22 08:19:01;;;;;;;9.65;3.40;;;16.30;99.90;;;;;;4958861;28;20038;-78
2022/05/22 08:21:27;;;;;;;10.60;4.20;;;16.40;99.90;;;;;;4945485;28;20122;-78
2022/05/22 08:23:52;;;;;;;12.55;4.20;;;16.50;99.90;;;;;;4948741;28;20038;-79
2022/05/22 08:26:18;;;;;;;9.13;3.75;;;16.60;99.90;;;;;;4957767;28;20436;-78
2022/05/22 08:28:44;;;;;;;7.60;3.42;;;16.80;99.90;;;;;;4961793;28;20046;-78
2022/05/22 08:31:11;;;;;;;10.35;3.70;;;17.00;99.90;;;;;;4979450;28;20045;-79
2022/05/22 08:33:37;;;;;;;6.65;3.20;;;17.20;99.90;;;;;;4966541;28;20053;-78
2022/05/22 08:36:04;;;;;;;9.77;4.00;;;17.30;99.90;;;;;;4959531;28;20171;-78
2022/05/22 08:38:29;;;;;;;7.22;3.42;;;17.30;99.90;;;;;;4965435;28;20085;-78
2022/05/22 08:41:25;;;;;;;10.38;4.10;;;17.20;99.90;;;;;;4950429;28;20034;-78
2022/05/22 08:44:09;;;;;;;12.40;4.00;;;16.90;99.90;;;;;;4953850;28;20045;-79
2022/05/22 08:46:43;;;;;;;8.35;3.53;;;16.70;99.90;;;;;;4968456;28;21630;-80
2022/05/22 08:49:33;;;;;;;9.80;3.60;;;16.80;99.90;;;;;;4978876;28;20038;-80
2022/05/22 08:52:42;;;;;;;9.90;3.50;;;17.10;99.90;;;;;;4965091;28;20038;-80
2022/05/22 08:55:21;;;;;;;8.75;3.58;;;17.30;99.90;;;;;;4947085;28;20087;-79
2022/05/22 09:01:21;;;;;;;11.52;3.35;;;17.60;99.90;;;;;;4962154;28;20558;-79
2022/05/22 09:04:11;;;;;;;9.82;3.75;;;17.50;99.90;;;;;;4970038;28;20129;-79
2022/05/22 09:06:46;;;;;;;8.80;3.10;;;17.40;99.90;;;;;;4970774;28;20048;-79
2022/05/22 09:09:12;;;;;;;10.90;3.63;;;17.60;99.90;;;;;;4976170;28;20047;-81
2022/05/22 09:11:56;;;;;;;12.82;3.45;;;17.80;99.90;;;;;;4962599;28;20043;-81
2022/05/22 09:14:34;;;;;;;6.85;3.03;;;18.00;99.90;;;;;;4945376;28;20126;-79
2022/05/22 09:17:24;;;;;;;12.10;4.32;;;18.20;99.90;;;;;;4957429;28;20066;-78
2022/05/22 09:19:55;;;;;;;8.73;3.10;;;18.20;99.90;;;;;;4955930;28;20534;-78
2022/05/22 09:22:37;;;;;;;8.10;2.45;;;18.10;99.90;;;;;;4964357;28;20038;-78
2022/05/22 09:25:18;;;;;;;6.63;2.50;;;17.90;99.90;;;;;;4952779;28;20046;-78
2022/05/22 09:27:59;;;;;;;7.40;2.90;;;17.90;99.90;;;;;;4967158;28;20523;-78
2022/05/22 09:31:06;;;;;;;6.10;2.78;;;18.10;99.90;;;;;;4969507;28;20078;-78
2022/05/22 09:34:06;;;;;;;7.88;3.25;;;18.40;99.90;;;;;;4952048;28;20108;-78
2022/05/22 09:36:42;;;;;;;8.10;3.10;;;18.70;99.90;;;;;;4966284;28;20122;-78
2022/05/22 09:39:15;;;;;;;8.23;2.65;;;19.00;99.90;;;;;;4967218;28;20035;-78
2022/05/22 09:41:59;;;;;;;10.80;3.25;;;19.30;99.90;;;;;;4978445;28;20111;-78
2022/05/22 09:44:47;;;;;;;5.72;2.40;;;19.20;99.90;;;;;;4956847;28;20145;-78
2022/05/22 09:47:15;;;;;;;6.13;2.70;;;19.00;99.80;;;;;;4977920;28;20046;-78
2022/05/22 09:50:10;;;;;;;11.63;2.90;;;18.90;99.90;;;;;;4971806;28;20041;-78
2022/05/22 09:52:45;;;;;;;9.18;2.58;;;18.80;99.90;;;;;;4946772;28;20065;-78
2022/05/22 09:55:42;;;;;;;9.45;4.03;;;18.60;99.90;;;;;;4967107;28;20110;-78
2022/05/22 09:58:18;;;;;;;6.38;2.50;;;18.50;99.90;;;;;;4962383;28;20094;-78
2022/05/22 10:01:12;;;;;;;6.30;2.50;;;18.60;99.90;;;;;;4951825;28;20061;-78
2022/05/22 10:04:09;;;;;;;7.88;2.60;;;18.80;99.90;;;;;;4963847;28;20042;-78
2022/05/22 10:06:47;;;;;;;8.40;2.50;;;19.10;98.30;;;;;;4978437;28;20051;-78
2022/05/22 10:09:40;;;;;;;10.85;2.75;;;19.40;99.90;;;;;;4970566;28;20042;-78
2022/05/22 10:12:17;;;;;;;5.65;2.50;;;19.70;99.90;;;;;;4966277;28;20058;-78
2022/05/22 10:14:55;;;;;;;7.18;2.40;;;19.90;99.70;;;;;;4966624;28;20053;-78
2022/05/22 10:17:37;;;;;;;6.85;2.53;;;20.10;99.60;;;;;;4963866;28;20047;-76
2022/05/22 10:20:19;;;;;;;6.18;2.45;;;20.20;99.30;;;;;;4964117;28;20100;-76
2022/05/22 10:23:12;;;;;;;7.15;2.35;;;20.20;98.10;;;;;;4965943;28;20054;-76
2022/05/22 10:26:16;;;;;;;4.68;1.80;;;19.90;94.80;;;;;;4949265;28;20137;-76
2022/05/22 10:28:49;;;;;;;5.47;2.25;;;19.60;96.40;;;;;;4949555;28;20042;-76
2022/05/22 10:31:21;;;;;;;6.78;2.33;;;19.30;97.10;;;;;;4961614;28;20043;-77
2022/05/22 10:34:06;;;;;;;22.73;2.50;;;19.40;98.00;;;;;;4964704;28;20078;-78
2022/05/22 10:36:47;;;;;;;6.97;2.33;;;19.50;98.70;;;;;;4959579;28;20041;-76
2022/05/22 10:39:14;;;;;;;7.57;2.33;;;19.40;98.70;;;;;;4965886;28;20042;-76
2022/05/22 10:44:29;;;;;;;8.38;2.33;;;19.70;98.90;;;;;;4969659;28;20057;-78
2022/05/22 10:46:58;;;;;;;6.57;2.38;;;20.10;98.50;;;;;;4965947;28;20076;-77
2022/05/22 10:49:36;;;;;;;6.13;2.47;;;20.30;98.60;;;;;;4951754;28;20097;-78
2022/05/22 10:52:04;;;;;;;6.13;2.38;;;20.40;98.20;;;;;;4965848;28;20052;-78
2022/05/22 10:54:35;;;;;;;8.68;2.70;;;20.50;97.80;;;;;;4963406;28;20491;-77
2022/05/22 10:57:10;;;;;;;7.85;2.42;;;20.70;97.40;;;;;;4973726;28;20046;-76
2022/05/22 10:59:37;;;;;;;7.55;2.50;;;20.80;95.60;;;;;;4962036;28;20539;-77
2022/05/22 11:02:06;;;;;;;9.63;2.65;;;20.80;96.60;;;;;;4934152;28;20612;-77
2022/05/22 11:04:38;;;;;;;9.60;2.47;;;21.10;96.80;;;;;;4968998;28;20403;-77
2022/05/22 11:07:05;;;;;;;;;;;21.40;97.10;;;;;;4964885;28;20485;-77
2022/05/22 11:09:34;;;;;;;6.13;2.22;;;21.40;95.30;;;;;;4965735;28;20379;-77
2022/05/22 11:12:08;;;;;;;8.77;2.50;;;21.70;96.20;;;;;;4963764;28;20054;-77
2022/05/22 11:14:35;;;;;;;11.48;2.92;;;21.80;94.50;;;;;;4963695;28;20112;-77
2022/05/22 11:17:08;;;;;;;8.40;2.90;;;21.70;94.50;;;;;;4944017;28;20150;-78
2022/05/22 11:19:39;;;;;;;7.55;2.47;;;21.60;94.30;;;;;;4962519;28;20042;-77
2022/05/22 11:22:27;;;;;;;5.05;2.20;;;21.40;94.80;;;;;;4966767;28;20524;-77
2022/05/22 11:25:31;;;;;;;9.45;2.60;;;21.10;95.10;;;;;;4959781;28;20034;-77
2022/05/22 11:28:32;;;;;;;14.05;2.53;;;20.80;95.10;;;;;;4947137;28;20038;-77
2022/05/22 11:31:10;;;;;;;5.78;2.47;;;20.40;95.00;;;;;;4916680;28;20046;-77
2022/05/22 11:34:03;;;;;;;8.57;2.58;;;20.30;96.10;;;;;;4951239;28;20052;-77
2022/05/22 11:36:53;;;;;;;4.07;2.00;;;20.00;94.90;;;;;;4964620;28;20046;-77
2022/05/22 11:39:56;;;;;;;7.95;2.50;;;19.80;95.80;;;;;;4962138;28;20047;-77
2022/05/22 11:42:32;;;;;;;;;;;19.70;96.20;;;;;;4945115;28;20046;-76
2022/05/22 11:45:26;;;;;;;6.68;2.40;;;19.60;95.80;;;;;;4962113;28;20001;-77
2022/05/22 11:48:24;;;;;;;4.25;2.47;;;19.50;96.50;;;;;;4955160;28;20046;-77
2022/05/22 11:51:10;;;;;;;6.88;2.50;;;19.50;96.90;;;;;;4968804;28;20499;-79
2022/05/22 11:54:01;;;;;;;6.57;2.30;;;19.60;97.50;;;;;;4941514;28;20043;-78
2022/05/22 11:56:32;;;;;;;4.82;2.00;;;20.00;97.60;;;;;;4968142;28;20041;-77
2022/05/22 11:59:19;;;;;;;6.37;2.40;;;20.30;96.80;;;;;;4964059;28;20066;-77
2022/05/22 12:02:08;;;;;;;7.90;2.88;;;20.50;96.50;;;;;;4963248;28;20130;-78
2022/05/22 12:05:05;;;;;;;10.75;2.60;;;20.40;95.20;;;;;;4959073;28;20035;-78
2022/05/22 12:08:03;;;;;;;5.40;2.28;;;20.30;95.90;;;;;;4945316;28;20042;-78
2022/05/22 12:10:35;;;;;;;6.18;2.20;;;20.40;95.70;;;;;;4916484;28;20054;-79
2022/05/22 12:13:22;;;;;;;;;;;20.60;95.70;;;;;;4958376;28;20045;-78
2022/05/22 12:15:57;;;;;;;6.25;2.40;;;20.70;92.90;;;;;;4959372;28;19918;-79
2022/05/22 12:18:35;;;;;;;6.97;2.30;;;20.80;94.90;;;;;;4961190;28;20790;-80
2022/05/22 12:21:39;;;;;;;9.50;2.80;;;21.20;93.70;;;;;;4966113;28;20639;-78
2022/05/22 12:24:16;;;;;;;8.63;2.40;;;21.30;94.90;;;;;;4943397;28;20046;-78
2022/05/22 12:26:43;;;;;;;7.95;2.50;;;21.50;92.60;;;;;;4960676;28;20034;-79
2022/05/22 12:29:16;;;;;;;6.30;2.42;;;21.50;93.80;;;;;;4946656;28;20039;-78
2022/05/22 12:31:47;;;;;;;11.68;2.80;;;21.50;93.10;;;;;;4977864;28;20178;-79
2022/05/22 12:34:18;;;;;;;6.55;2.10;;;21.60;93.00;;;;;;4948811;28;20045;-79
2022/05/22 12:36:48;;;;;;;5.40;2.30;;;21.50;93.10;;;;;;4959246;28;20484;-77
2022/05/22 12:39:15;;;;;;;6.05;2.33;;;21.70;92.60;;;;;;4947337;28;20456;-77
2022/05/22 12:42:00;;;;;;;6.50;2.38;;;21.90;92.80;;;;;;4961878;28;20085;-77
2022/05/22 12:44:28;;;;;;;6.95;2.13;;;22.10;93.40;;;;;;4981610;28;20050;-78
2022/05/22 12:46:57;;;;;;;6.93;2.20;;;22.20;92.90;;;;;;4964785;28;20662;-78
2022/05/22 12:49:25;;;;;;;4.25;2.10;;;22.30;92.80;;;;;;4968301;28;20574;-78
2022/05/22 12:52:05;;;;;;;6.55;2.50;;;22.30;92.90;;;;;;4946179;28;20130;-78
2022/05/22 12:54:33;;;;;;;4.75;1.88;;;22.40;92.00;;;;;;4962858;28;20050;-78
2022/05/22 12:57:16;;;;;;;5.15;2.28;;;22.20;92.40;;;;;;4944168;28;20043;-78
2022/05/22 12:59:53;;;;;;;4.65;2.20;;;22.00;91.50;;;;;;4962700;28;20027;-78
2022/05/22 13:02:36;;;;;;;5.47;2.00;;;22.00;92.30;;;;;;4954427;28;20043;-77
2022/05/22 13:05:12;;;;;;;4.20;2.10;;;21.90;91.10;;;;;;4968755;28;20050;-77
2022/05/22 13:07:38;;;;;;;4.00;1.70;;;21.60;91.50;;;;;;4955543;28;20076;-78
2022/05/22 13:10:33;;;;;;;6.55;1.77;;;21.50;91.50;;;;;;4948340;28;20049;-78
2022/05/22 13:13:12;;;;;;;6.60;2.20;;;21.30;90.90;;;;;;4947779;28;20051;-78
2022/05/22 13:15:55;;;;;;;5.38;2.47;;;21.20;90.40;;;;;;4946209;28;20043;-78
2022/05/22 13:18:21;;;;;;;5.20;2.00;;;21.20;90.40;;;;;;4953517;28;20074;-78
2022/05/22 13:20:51;;;;;;;7.97;2.20;;;21.10;91.40;;;;;;4969309;28;20503;-78
2022/05/22 13:23:23;;;;;;;6.38;2.25;;;21.00;91.00;;;;;;4956993;28;20057;-78
2022/05/22 13:25:52;;;;;;;7.10;2.45;;;21.10;91.20;;;;;;4966228;28;20046;-78